sensor_id;sensor_type;location;lat;lon;timestamp;pressure;altitude;pressure_sealevel;temperature;humidity
45285;BME280;31026;43.780;25.948;2022-07-23T00:02:22;100809.00;;;24.11;47.95
45285;BME280;31026;43.780;25.948;2022-07-23T00:04:53;100815.94;;;24.05;48.24
45285;BME280;31026;43.780;25.948;2022-07-23T00:07:21;100818.97;;;24.02;48.26
45285;BME280;31026;43.780;25.948;2022-07-23T00:09:50;100835.19;;;23.94;48.37
45285;BME280;31026;43.780;25.948;2022-07-23T00:12:18;100838.56;;;23.96;48.49
45285;BME280;31026;43.780;25.948;2022-07-23T00:14:46;100838.22;;;23.99;48.57
45285;BME280;31026;43.780;25.948;2022-07-23T00:17:14;100831.44;;;23.95;48.47
45285;BME280;31026;43.780;25.948;2022-07-23T00:19:43;100843.94;;;23.88;48.74
45285;BME280;31026;43.780;25.948;2022-07-23T00:22:14;100853.78;;;23.54;49.14
45285;BME280;31026;43.780;25.948;2022-07-23T00:24:42;100844.22;;;23.68;48.60
45285;BME280;31026;43.780;25.948;2022-07-23T00:27:10;100844.78;;;23.88;48.15
45285;BME280;31026;43.780;25.948;2022-07-23T00:29:38;100832.28;;;23.87;48.57
45285;BME280;31026;43.780;25.948;2022-07-23T00:32:07;100844.28;;;23.85;48.63
45285;BME280;31026;43.780;25.948;2022-07-23T00:34:35;100848.31;;;23.89;48.34
45285;BME280;31026;43.780;25.948;2022-07-23T00:37:03;100844.63;;;23.90;48.29
45285;BME280;31026;43.780;25.948;2022-07-23T00:39:34;100832.47;;;23.94;48.56
45285;BME280;31026;43.780;25.948;2022-07-23T00:42:02;100847.13;;;23.91;48.58
45285;BME280;31026;43.780;25.948;2022-07-23T00:44:31;100831.44;;;23.95;48.67
45285;BME280;31026;43.780;25.948;2022-07-23T00:46:59;100846.97;;;23.85;48.44
45285;BME280;31026;43.780;25.948;2022-07-23T00:49:28;100843.06;;;23.79;48.75
45285;BME280;31026;43.780;25.948;2022-07-23T00:51:57;100839.53;;;23.78;48.63
45285;BME280;31026;43.780;25.948;2022-07-23T00:54:28;100841.56;;;23.85;48.57
45285;BME280;31026;43.780;25.948;2022-07-23T00:56:59;100835.81;;;23.79;48.74
45285;BME280;31026;43.780;25.948;2022-07-23T00:59:27;100831.13;;;23.90;48.62
45285;BME280;31026;43.780;25.948;2022-07-23T01:01:56;100833.63;;;23.83;48.77
45285;BME280;31026;43.780;25.948;2022-07-23T01:04:24;100822.63;;;23.76;48.54
45285;BME280;31026;43.780;25.948;2022-07-23T01:06:52;100829.09;;;23.84;48.72
45285;BME280;31026;43.780;25.948;2022-07-23T01:09:20;100835.66;;;23.81;48.91
45285;BME280;31026;43.780;25.948;2022-07-23T01:11:49;100825.00;;;23.79;48.72
45285;BME280;31026;43.780;25.948;2022-07-23T01:14:21;100834.13;;;23.78;49.01
45285;BME280;31026;43.780;25.948;2022-07-23T01:16:49;100830.41;;;23.79;48.87
45285;BME280;31026;43.780;25.948;2022-07-23T01:19:18;100827.34;;;23.74;48.93
45285;BME280;31026;43.780;25.948;2022-07-23T01:21:47;100820.75;;;23.69;48.68
45285;BME280;31026;43.780;25.948;2022-07-23T01:24:18;100825.31;;;23.68;48.76
45285;BME280;31026;43.780;25.948;2022-07-23T01:26:47;100825.94;;;23.54;49.17
45285;BME280;31026;43.780;25.948;2022-07-23T01:29:16;100827.63;;;23.63;48.72
45285;BME280;31026;43.780;25.948;2022-07-23T01:31:46;100829.00;;;23.75;48.62
45285;BME280;31026;43.780;25.948;2022-07-23T01:34:14;100828.34;;;23.73;48.67
45285;BME280;31026;43.780;25.948;2022-07-23T01:36:42;100818.56;;;23.64;49.02
45285;BME280;31026;43.780;25.948;2022-07-23T01:39:12;100837.63;;;23.71;49.04
45285;BME280;31026;43.780;25.948;2022-07-23T01:41:43;100844.88;;;23.70;48.98
45285;BME280;31026;43.780;25.948;2022-07-23T01:44:12;100817.06;;;23.70;48.67
45285;BME280;31026;43.780;25.948;2022-07-23T01:46:40;100822.09;;;23.73;48.43
45285;BME280;31026;43.780;25.948;2022-07-23T01:49:09;100836.13;;;23.76;48.81
45285;BME280;31026;43.780;25.948;2022-07-23T01:51:37;100832.91;;;23.73;48.21
45285;BME280;31026;43.780;25.948;2022-07-23T01:54:24;100834.75;;;23.72;48.44
45285;BME280;31026;43.780;25.948;2022-07-23T01:56:55;100815.88;;;23.72;48.45
45285;BME280;31026;43.780;25.948;2022-07-23T01:59:24;100823.44;;;23.69;48.23
45285;BME280;31026;43.780;25.948;2022-07-23T02:01:53;100814.69;;;23.75;48.25
45285;BME280;31026;43.780;25.948;2022-07-23T02:04:24;100823.13;;;23.72;48.32
45285;BME280;31026;43.780;25.948;2022-07-23T02:06:53;100819.56;;;23.71;48.22
45285;BME280;31026;43.780;25.948;2022-07-23T02:09:22;100815.22;;;23.78;48.07
45285;BME280;31026;43.780;25.948;2022-07-23T02:11:50;100809.84;;;23.78;48.07
45285;BME280;31026;43.780;25.948;2022-07-23T02:14:21;100824.00;;;23.80;48.28
45285;BME280;31026;43.780;25.948;2022-07-23T02:16:50;100809.97;;;23.77;48.33
45285;BME280;31026;43.780;25.948;2022-07-23T02:19:18;100828.19;;;23.75;48.35
45285;BME280;31026;43.780;25.948;2022-07-23T02:21:47;100826.03;;;23.78;48.03
45285;BME280;31026;43.780;25.948;2022-07-23T02:24:15;100821.25;;;23.72;48.24
45285;BME280;31026;43.780;25.948;2022-07-23T02:26:43;100812.50;;;23.70;48.01
45285;BME280;31026;43.780;25.948;2022-07-23T02:29:12;100815.19;;;23.70;48.17
45285;BME280;31026;43.780;25.948;2022-07-23T02:31:42;100821.94;;;23.74;47.97
45285;BME280;31026;43.780;25.948;2022-07-23T02:34:11;100826.50;;;23.74;48.20
45285;BME280;31026;43.780;25.948;2022-07-23T02:36:40;100832.91;;;23.73;48.36
45285;BME280;31026;43.780;25.948;2022-07-23T02:39:08;100823.81;;;23.74;48.18
45285;BME280;31026;43.780;25.948;2022-07-23T02:41:36;100833.25;;;23.70;48.21
45285;BME280;31026;43.780;25.948;2022-07-23T02:44:05;100822.59;;;23.68;48.36
45285;BME280;31026;43.780;25.948;2022-07-23T02:46:33;100833.56;;;23.67;48.28
45285;BME280;31026;43.780;25.948;2022-07-23T02:49:04;100830.72;;;23.68;48.25
45285;BME280;31026;43.780;25.948;2022-07-23T02:51:33;100835.59;;;23.65;48.37
45285;BME280;31026;43.780;25.948;2022-07-23T02:54:01;100847.41;;;23.63;48.16
45285;BME280;31026;43.780;25.948;2022-07-23T02:56:29;100846.13;;;23.41;48.71
45285;BME280;31026;43.780;25.948;2022-07-23T02:58:58;100847.09;;;23.24;48.88
45285;BME280;31026;43.780;25.948;2022-07-23T03:01:26;100844.75;;;23.37;48.53
45285;BME280;31026;43.780;25.948;2022-07-23T03:03:54;100843.97;;;23.53;48.46
45285;BME280;31026;43.780;25.948;2022-07-23T03:06:25;100835.00;;;23.45;48.04
45285;BME280;31026;43.780;25.948;2022-07-23T03:08:54;100847.16;;;23.40;48.10
45285;BME280;31026;43.780;25.948;2022-07-23T03:11:22;100841.47;;;23.52;48.23
45285;BME280;31026;43.780;25.948;2022-07-23T03:13:50;100849.22;;;23.55;48.16
45285;BME280;31026;43.780;25.948;2022-07-23T03:16:19;100848.91;;;23.58;47.93
45285;BME280;31026;43.780;25.948;2022-07-23T03:18:47;100862.72;;;23.55;48.22
45285;BME280;31026;43.780;25.948;2022-07-23T03:21:15;100862.38;;;23.50;48.18
45285;BME280;31026;43.780;25.948;2022-07-23T03:23:46;100854.09;;;23.51;48.24
45285;BME280;31026;43.780;25.948;2022-07-23T03:26:15;100842.63;;;23.49;48.64
45285;BME280;31026;43.780;25.948;2022-07-23T03:28:43;100852.59;;;23.57;48.52
45285;BME280;31026;43.780;25.948;2022-07-23T03:31:11;100851.91;;;23.55;48.15
45285;BME280;31026;43.780;25.948;2022-07-23T03:33:40;100862.53;;;23.48;48.11
45285;BME280;31026;43.780;25.948;2022-07-23T03:36:08;100869.97;;;23.54;48.52
45285;BME280;31026;43.780;25.948;2022-07-23T03:38:37;100860.84;;;23.55;47.98
45285;BME280;31026;43.780;25.948;2022-07-23T03:41:08;100867.81;;;23.58;48.30
45285;BME280;31026;43.780;25.948;2022-07-23T03:43:36;100866.47;;;23.62;47.98
45285;BME280;31026;43.780;25.948;2022-07-23T03:46:05;100857.50;;;23.61;48.20
45285;BME280;31026;43.780;25.948;2022-07-23T03:48:33;100865.09;;;23.58;48.40
45285;BME280;31026;43.780;25.948;2022-07-23T03:51:02;100858.38;;;23.62;48.30
45285;BME280;31026;43.780;25.948;2022-07-23T03:53:30;100861.06;;;23.62;48.44
45285;BME280;31026;43.780;25.948;2022-07-23T03:55:58;100867.97;;;23.65;48.08
45285;BME280;31026;43.780;25.948;2022-07-23T03:58:29;100885.69;;;23.67;48.26
45285;BME280;31026;43.780;25.948;2022-07-23T04:00:58;100871.38;;;23.67;48.00
45285;BME280;31026;43.780;25.948;2022-07-23T04:03:26;100873.41;;;23.73;48.17
45285;BME280;31026;43.780;25.948;2022-07-23T04:05:55;100873.81;;;23.78;48.10
45285;BME280;31026;43.780;25.948;2022-07-23T04:08:23;100866.53;;;23.78;48.36
45285;BME280;31026;43.780;25.948;2022-07-23T04:10:51;100871.38;;;23.75;47.96
45285;BME280;31026;43.780;25.948;2022-07-23T04:13:20;100870.91;;;23.79;48.20
45285;BME280;31026;43.780;25.948;2022-07-23T04:15:51;100873.13;;;23.84;48.06
45285;BME280;31026;43.780;25.948;2022-07-23T04:18:19;100890.19;;;23.85;48.17
45285;BME280;31026;43.780;25.948;2022-07-23T04:20:49;100885.47;;;23.87;47.84
45285;BME280;31026;43.780;25.948;2022-07-23T04:23:18;100898.97;;;23.87;47.97
45285;BME280;31026;43.780;25.948;2022-07-23T04:25:47;100891.88;;;23.86;47.96
45285;BME280;31026;43.780;25.948;2022-07-23T04:28:15;100890.19;;;23.85;48.30
45285;BME280;31026;43.780;25.948;2022-07-23T04:30:44;100887.63;;;23.83;48.20
45285;BME280;31026;43.780;25.948;2022-07-23T04:33:15;100900.00;;;23.94;48.31
45285;BME280;31026;43.780;25.948;2022-07-23T04:35:44;100878.91;;;23.97;48.27
45285;BME280;31026;43.780;25.948;2022-07-23T04:38:12;100894.63;;;24.02;47.97
45285;BME280;31026;43.780;25.948;2022-07-23T04:40:41;100889.88;;;23.96;47.84
45285;BME280;31026;43.780;25.948;2022-07-23T04:43:09;100886.16;;;23.97;47.67
45285;BME280;31026;43.780;25.948;2022-07-23T04:45:38;100896.47;;;24.01;47.93
45285;BME280;31026;43.780;25.948;2022-07-23T04:48:06;100894.28;;;24.05;47.73
45285;BME280;31026;43.780;25.948;2022-07-23T04:50:37;100909.66;;;24.13;47.93
45285;BME280;31026;43.780;25.948;2022-07-23T04:53:05;100884.88;;;24.17;47.34
45285;BME280;31026;43.780;25.948;2022-07-23T04:55:34;100900.72;;;24.20;47.53
45285;BME280;31026;43.780;25.948;2022-07-23T04:58:02;100915.59;;;24.25;47.64
45285;BME280;31026;43.780;25.948;2022-07-23T05:00:30;100908.16;;;24.27;47.65
45285;BME280;31026;43.780;25.948;2022-07-23T05:02:59;100897.34;;;24.18;47.66
45285;BME280;31026;43.780;25.948;2022-07-23T05:05:27;100902.28;;;24.31;47.39
45285;BME280;31026;43.780;25.948;2022-07-23T05:07:58;100908.16;;;24.35;47.73
45285;BME280;31026;43.780;25.948;2022-07-23T05:10:26;100912.56;;;24.36;47.63
45285;BME280;31026;43.780;25.948;2022-07-23T05:12:55;100921.69;;;24.43;47.55
45285;BME280;31026;43.780;25.948;2022-07-23T05:15:23;100926.25;;;24.42;47.70
45285;BME280;31026;43.780;25.948;2022-07-23T05:17:52;100923.38;;;24.44;47.50
45285;BME280;31026;43.780;25.948;2022-07-23T05:20:20;100926.44;;;24.49;47.69
45285;BME280;31026;43.780;25.948;2022-07-23T05:22:49;100942.34;;;24.52;47.92
45285;BME280;31026;43.780;25.948;2022-07-23T05:25:20;100934.75;;;24.56;47.96
45285;BME280;31026;43.780;25.948;2022-07-23T05:27:48;100940.16;;;24.56;47.82
45285;BME280;31026;43.780;25.948;2022-07-23T05:30:17;100933.72;;;24.57;47.80
45285;BME280;31026;43.780;25.948;2022-07-23T05:32:45;100935.59;;;24.65;47.91
45285;BME280;31026;43.780;25.948;2022-07-23T05:35:14;100941.00;;;24.65;48.03
45285;BME280;31026;43.780;25.948;2022-07-23T05:37:42;100929.34;;;24.64;48.25
45285;BME280;31026;43.780;25.948;2022-07-23T05:40:11;100929.50;;;24.63;48.45
45285;BME280;31026;43.780;25.948;2022-07-23T05:42:42;100934.22;;;24.69;48.38
45285;BME280;31026;43.780;25.948;2022-07-23T05:45:10;100919.34;;;24.65;48.22
45285;BME280;31026;43.780;25.948;2022-07-23T05:47:39;100924.97;;;24.63;48.85
45285;BME280;31026;43.780;25.948;2022-07-23T05:50:08;100936.63;;;24.64;48.54
45285;BME280;31026;43.780;25.948;2022-07-23T05:52:37;100935.44;;;24.66;48.82
45285;BME280;31026;43.780;25.948;2022-07-23T05:55:05;100936.44;;;24.65;49.07
45285;BME280;31026;43.780;25.948;2022-07-23T05:57:34;100939.63;;;24.69;48.62
45285;BME280;31026;43.780;25.948;2022-07-23T06:00:06;100935.25;;;24.68;48.62
45285;BME280;31026;43.780;25.948;2022-07-23T06:02:34;100939.84;;;24.67;48.47
45285;BME280;31026;43.780;25.948;2022-07-23T06:05:03;100928.16;;;24.67;48.86
45285;BME280;31026;43.780;25.948;2022-07-23T06:07:32;100941.50;;;24.68;48.83
45285;BME280;31026;43.780;25.948;2022-07-23T06:10:01;100928.66;;;24.70;48.84
45285;BME280;31026;43.780;25.948;2022-07-23T06:12:29;100919.34;;;24.65;49.03
45285;BME280;31026;43.780;25.948;2022-07-23T06:14:58;100932.72;;;24.66;48.93
45285;BME280;31026;43.780;25.948;2022-07-23T06:17:28;100920.22;;;24.65;49.41
45285;BME280;31026;43.780;25.948;2022-07-23T06:19:57;100923.25;;;24.70;49.18
45285;BME280;31026;43.780;25.948;2022-07-23T06:22:25;100924.09;;;24.71;49.35
45285;BME280;31026;43.780;25.948;2022-07-23T06:24:53;100913.09;;;24.72;49.23
45285;BME280;31026;43.780;25.948;2022-07-23T06:27:22;100915.50;;;24.75;49.32
45285;BME280;31026;43.780;25.948;2022-07-23T06:29:50;100922.56;;;24.76;49.25
45285;BME280;31026;43.780;25.948;2022-07-23T06:32:18;100927.66;;;24.79;49.12
45285;BME280;31026;43.780;25.948;2022-07-23T06:34:49;100930.19;;;24.81;49.19
45285;BME280;31026;43.780;25.948;2022-07-23T06:37:18;100930.53;;;24.78;49.43
45285;BME280;31026;43.780;25.948;2022-07-23T06:39:46;100926.13;;;24.69;50.55
45285;BME280;31026;43.780;25.948;2022-07-23T06:42:14;100925.78;;;24.72;50.87
45285;BME280;31026;43.780;25.948;2022-07-23T06:44:43;100923.09;;;24.72;50.84
45285;BME280;31026;43.780;25.948;2022-07-23T06:47:11;100926.81;;;24.79;50.57
45285;BME280;31026;43.780;25.948;2022-07-23T06:49:40;100925.13;;;24.78;50.75
45285;BME280;31026;43.780;25.948;2022-07-23T06:52:11;100937.28;;;24.82;50.65
45285;BME280;31026;43.780;25.948;2022-07-23T06:54:39;100917.81;;;24.87;50.66
45285;BME280;31026;43.780;25.948;2022-07-23T06:57:08;100928.16;;;24.83;51.26
45285;BME280;31026;43.780;25.948;2022-07-23T06:59:36;100922.75;;;24.83;51.36
45285;BME280;31026;43.780;25.948;2022-07-23T07:02:05;100923.44;;;24.85;51.29
45285;BME280;31026;43.780;25.948;2022-07-23T07:04:34;100927.47;;;24.89;51.47
45285;BME280;31026;43.780;25.948;2022-07-23T07:07:02;100925.78;;;24.88;51.49
45285;BME280;31026;43.780;25.948;2022-07-23T07:09:33;100942.00;;;24.88;51.54
45285;BME280;31026;43.780;25.948;2022-07-23T07:12:03;100933.06;;;24.88;51.88
45285;BME280;31026;43.780;25.948;2022-07-23T07:14:31;100945.22;;;24.84;52.84
45285;BME280;31026;43.780;25.948;2022-07-23T07:17:00;100932.22;;;24.79;52.56
45285;BME280;31026;43.780;25.948;2022-07-23T07:19:28;100948.94;;;24.83;52.56
45285;BME280;31026;43.780;25.948;2022-07-23T07:21:56;100932.91;;;24.81;52.32
45285;BME280;31026;43.780;25.948;2022-07-23T07:24:25;100927.50;;;24.81;51.96
45285;BME280;31026;43.780;25.948;2022-07-23T07:26:56;100931.88;;;24.82;52.10
45285;BME280;31026;43.780;25.948;2022-07-23T07:29:24;100937.63;;;24.87;51.93
45285;BME280;31026;43.780;25.948;2022-07-23T07:31:53;100938.47;;;24.88;52.41
45285;BME280;31026;43.780;25.948;2022-07-23T07:34:21;100924.25;;;24.86;52.67
45285;BME280;31026;43.780;25.948;2022-07-23T07:36:50;100929.31;;;24.89;52.21
45285;BME280;31026;43.780;25.948;2022-07-23T07:39:18;100922.53;;;24.93;52.40
45285;BME280;31026;43.780;25.948;2022-07-23T07:41:47;100918.16;;;24.92;52.78
45285;BME280;31026;43.780;25.948;2022-07-23T07:44:18;100921.88;;;24.91;53.22
45285;BME280;31026;43.780;25.948;2022-07-23T07:46:46;100920.03;;;24.91;52.71
45285;BME280;31026;43.780;25.948;2022-07-23T07:49:14;100915.31;;;24.93;54.07
45285;BME280;31026;43.780;25.948;2022-07-23T07:51:44;100917.13;;;24.93;53.35
45285;BME280;31026;43.780;25.948;2022-07-23T07:54:12;100910.56;;;24.95;53.03
45285;BME280;31026;43.780;25.948;2022-07-23T07:56:41;100906.50;;;24.91;53.09
45285;BME280;31026;43.780;25.948;2022-07-23T07:59:09;100901.44;;;24.88;53.29
45285;BME280;31026;43.780;25.948;2022-07-23T08:01:42;100902.78;;;24.84;53.53
45285;BME280;31026;43.780;25.948;2022-07-23T08:04:10;100901.25;;;24.90;53.52
45285;BME280;31026;43.780;25.948;2022-07-23T08:06:39;100901.25;;;24.90;53.42
45285;BME280;31026;43.780;25.948;2022-07-23T08:09:07;100909.38;;;24.90;53.44
45285;BME280;31026;43.780;25.948;2022-07-23T08:11:36;100906.16;;;24.86;53.08
45285;BME280;31026;43.780;25.948;2022-07-23T08:14:04;100902.25;;;24.89;53.06
45285;BME280;31026;43.780;25.948;2022-07-23T08:16:34;100902.47;;;24.87;53.27
45285;BME280;31026;43.780;25.948;2022-07-23T08:19:05;100891.28;;;24.90;53.27
45285;BME280;31026;43.780;25.948;2022-07-23T08:21:33;100887.91;;;24.88;53.19
45285;BME280;31026;43.780;25.948;2022-07-23T08:24:02;100894.16;;;24.89;53.29
45285;BME280;31026;43.780;25.948;2022-07-23T08:26:30;100895.03;;;24.89;53.15
45285;BME280;31026;43.780;25.948;2022-07-23T08:28:58;100890.44;;;24.90;53.33
45285;BME280;31026;43.780;25.948;2022-07-23T08:31:27;100891.28;;;24.90;53.35
45285;BME280;31026;43.780;25.948;2022-07-23T08:33:55;100879.78;;;24.88;52.96
45285;BME280;31026;43.780;25.948;2022-07-23T08:36:26;100889.94;;;24.86;53.44
45285;BME280;31026;43.780;25.948;2022-07-23T08:38:57;100877.59;;;24.84;53.35
45285;BME280;31026;43.780;25.948;2022-07-23T08:41:27;100884.38;;;24.88;53.20
45285;BME280;31026;43.780;25.948;2022-07-23T08:43:56;100880.47;;;24.90;53.23
45285;BME280;31026;43.780;25.948;2022-07-23T08:46:26;100888.56;;;24.90;53.02
45285;BME280;31026;43.780;25.948;2022-07-23T08:48:54;100874.38;;;24.88;52.99
45285;BME280;31026;43.780;25.948;2022-07-23T08:51:27;100865.94;;;24.91;53.29
45285;BME280;31026;43.780;25.948;2022-07-23T08:53:56;100877.59;;;24.92;53.13
45285;BME280;31026;43.780;25.948;2022-07-23T08:56:24;100880.97;;;24.94;53.07
45285;BME280;31026;43.780;25.948;2022-07-23T08:58:53;100880.47;;;24.90;53.34
45285;BME280;31026;43.780;25.948;2022-07-23T09:01:21;100874.72;;;24.93;53.02
45285;BME280;31026;43.780;25.948;2022-07-23T09:03:49;100879.78;;;24.88;53.20
45285;BME280;31026;43.780;25.948;2022-07-23T09:06:18;100852.06;;;24.86;53.26
45285;BME280;31026;43.780;25.948;2022-07-23T09:08:49;100856.13;;;24.90;53.32
45285;BME280;31026;43.780;25.948;2022-07-23T09:11:17;100867.09;;;24.89;53.13
45285;BME280;31026;43.780;25.948;2022-07-23T09:13:46;100872.19;;;24.92;53.20
45285;BME280;31026;43.780;25.948;2022-07-23T09:16:18;100867.44;;;24.94;53.17
45285;BME280;31026;43.780;25.948;2022-07-23T09:18:47;100863.53;;;24.96;53.07
45285;BME280;31026;43.780;25.948;2022-07-23T09:21:20;100858.31;;;24.87;53.15
45285;BME280;31026;43.780;25.948;2022-07-23T09:23:55;100848.16;;;24.89;53.30
45285;BME280;31026;43.780;25.948;2022-07-23T09:26:34;100854.09;;;24.84;53.33
45285;BME280;31026;43.780;25.948;2022-07-23T09:29:04;100854.09;;;24.84;53.54
45285;BME280;31026;43.780;25.948;2022-07-23T09:31:33;100861.22;;;24.85;53.51
45285;BME280;31026;43.780;25.948;2022-07-23T09:34:06;100862.06;;;24.86;53.42
45285;BME280;31026;43.780;25.948;2022-07-23T09:36:35;100852.22;;;24.85;53.39
45285;BME280;31026;43.780;25.948;2022-07-23T09:39:06;100848.38;;;24.87;53.34
45285;BME280;31026;43.780;25.948;2022-07-23T09:41:36;100856.28;;;24.89;53.23
45285;BME280;31026;43.780;25.948;2022-07-23T09:44:09;100836.69;;;24.87;53.46
45285;BME280;31026;43.780;25.948;2022-07-23T09:46:37;100847.00;;;24.91;53.31
45285;BME280;31026;43.780;25.948;2022-07-23T09:49:18;100834.63;;;24.89;53.57
45285;BME280;31026;43.780;25.948;2022-07-23T09:51:51;100847.66;;;24.93;53.58
45285;BME280;31026;43.780;25.948;2022-07-23T09:54:23;100839.22;;;24.88;53.26
45285;BME280;31026;43.780;25.948;2022-07-23T09:56:53;100837.34;;;24.89;53.29
45285;BME280;31026;43.780;25.948;2022-07-23T09:59:23;100838.38;;;24.88;53.58
45285;BME280;31026;43.780;25.948;2022-07-23T10:01:52;100834.63;;;24.89;53.28
45285;BME280;31026;43.780;25.948;2022-07-23T10:04:22;100821.47;;;24.86;53.21
45285;BME280;31026;43.780;25.948;2022-07-23T10:06:51;100822.66;;;24.91;53.51
45285;BME280;31026;43.780;25.948;2022-07-23T10:09:24;100813.88;;;24.89;53.59
45285;BME280;31026;43.780;25.948;2022-07-23T10:11:54;100805.75;;;24.89;53.59
45285;BME280;31026;43.780;25.948;2022-07-23T10:14:25;100805.56;;;24.91;53.48
45285;BME280;31026;43.780;25.948;2022-07-23T10:16:56;100818.91;;;24.92;53.35
45285;BME280;31026;43.780;25.948;2022-07-23T10:19:25;100798.47;;;24.90;53.51
45285;BME280;31026;43.780;25.948;2022-07-23T10:21:55;100806.41;;;24.91;53.58
45285;BME280;31026;43.780;25.948;2022-07-23T10:24:28;100818.91;;;24.92;53.49
45285;BME280;31026;43.780;25.948;2022-07-23T10:27:02;100804.38;;;24.93;53.58
45285;BME280;31026;43.780;25.948;2022-07-23T10:29:36;100805.75;;;24.89;53.36
45285;BME280;31026;43.780;25.948;2022-07-23T10:32:08;100795.59;;;24.91;53.69
45285;BME280;31026;43.780;25.948;2022-07-23T10:34:39;100817.75;;;24.95;53.37
45285;BME280;31026;43.780;25.948;2022-07-23T10:37:12;100798.44;;;24.98;53.50
45285;BME280;31026;43.780;25.948;2022-07-23T10:39:46;100782.75;;;24.93;53.71
45285;BME280;31026;43.780;25.948;2022-07-23T10:42:15;100798.31;;;24.91;53.54
45285;BME280;31026;43.780;25.948;2022-07-23T10:44:43;100777.66;;;24.90;53.54
45285;BME280;31026;43.780;25.948;2022-07-23T10:47:12;100776.00;;;24.89;53.39
45285;BME280;31026;43.780;25.948;2022-07-23T10:50:16;100778.88;;;24.88;53.79
45285;BME280;31026;43.780;25.948;2022-07-23T10:58:16;100757.06;;;24.89;53.59
45285;BME280;31026;43.780;25.948;2022-07-23T11:00:45;100768.56;;;24.91;53.71
45285;BME280;31026;43.780;25.948;2022-07-23T11:05:57;100763.63;;;24.95;53.61
45285;BME280;31026;43.780;25.948;2022-07-23T11:08:26;100756.69;;;24.92;53.44
45285;BME280;31026;43.780;25.948;2022-07-23T11:10:55;100756.19;;;24.97;53.50
45285;BME280;31026;43.780;25.948;2022-07-23T11:13:35;100746.25;;;24.89;53.61
45285;BME280;31026;43.780;25.948;2022-07-23T11:16:05;100755.19;;;24.90;53.79
45285;BME280;31026;43.780;25.948;2022-07-23T11:24:03;100740.28;;;24.94;53.97
45285;BME280;31026;43.780;25.948;2022-07-23T11:26:46;100748.09;;;24.89;53.81
45285;BME280;31026;43.780;25.948;2022-07-23T11:32:02;100737.75;;;24.92;54.01
45285;BME280;31026;43.780;25.948;2022-07-23T11:34:31;100735.06;;;24.92;53.80
45285;BME280;31026;43.780;25.948;2022-07-23T11:37:00;100741.50;;;24.91;53.75
45285;BME280;31026;43.780;25.948;2022-07-23T11:39:29;100727.59;;;24.94;53.67
45285;BME280;31026;43.780;25.948;2022-07-23T11:41:58;100727.78;;;24.93;53.96
45285;BME280;31026;43.780;25.948;2022-07-23T11:44:27;100717.81;;;24.93;53.68
45285;BME280;31026;43.780;25.948;2022-07-23T11:46:55;100715.13;;;24.93;53.91
45285;BME280;31026;43.780;25.948;2022-07-23T11:49:27;100716.94;;;24.93;54.04
45285;BME280;31026;43.780;25.948;2022-07-23T11:52:03;100726.78;;;24.94;53.84
45285;BME280;31026;43.780;25.948;2022-07-23T11:54:32;100718.50;;;24.95;53.92
45285;BME280;31026;43.780;25.948;2022-07-23T11:57:00;100710.72;;;24.92;53.66
45285;BME280;31026;43.780;25.948;2022-07-23T11:59:31;100719.16;;;24.97;54.02
45285;BME280;31026;43.780;25.948;2022-07-23T12:02:00;100711.38;;;24.94;53.84
45285;BME280;31026;43.780;25.948;2022-07-23T12:04:39;100717.78;;;25.01;53.66
45285;BME280;31026;43.780;25.948;2022-07-23T12:07:22;100710.38;;;24.95;53.63
45285;BME280;31026;43.780;25.948;2022-07-23T12:09:50;100707.00;;;24.93;53.93
45285;BME280;31026;43.780;25.948;2022-07-23T12:12:19;100712.25;;;24.95;53.81
45285;BME280;31026;43.780;25.948;2022-07-23T12:14:48;100714.41;;;24.99;53.89
45285;BME280;31026;43.780;25.948;2022-07-23T12:17:16;100704.97;;;24.95;53.91
45285;BME280;31026;43.780;25.948;2022-07-23T12:19:47;100697.00;;;24.94;54.12
45285;BME280;31026;43.780;25.948;2022-07-23T12:22:16;100702.91;;;24.97;53.84
45285;BME280;31026;43.780;25.948;2022-07-23T12:24:54;100690.41;;;24.96;53.91
45285;BME280;31026;43.780;25.948;2022-07-23T12:27:23;100699.88;;;24.92;53.67
45285;BME280;31026;43.780;25.948;2022-07-23T12:29:52;100691.44;;;24.95;53.93
45285;BME280;31026;43.780;25.948;2022-07-23T12:32:21;100692.59;;;24.93;54.11
45285;BME280;31026;43.780;25.948;2022-07-23T12:35:02;100690.78;;;24.93;53.98
45285;BME280;31026;43.780;25.948;2022-07-23T12:37:31;100696.00;;;24.95;54.16
45285;BME280;31026;43.780;25.948;2022-07-23T12:42:43;100699.84;;;25.00;53.71
45285;BME280;31026;43.780;25.948;2022-07-23T12:45:11;100680.78;;;24.94;53.82
45285;BME280;31026;43.780;25.948;2022-07-23T12:50:42;100695.09;;;25.02;54.02
45285;BME280;31026;43.780;25.948;2022-07-23T12:53:12;100675.19;;;24.95;53.86
45285;BME280;31026;43.780;25.948;2022-07-23T12:55:41;100671.47;;;24.96;53.80
45285;BME280;31026;43.780;25.948;2022-07-23T12:58:11;100676.38;;;25.01;54.09
45285;BME280;31026;43.780;25.948;2022-07-23T13:00:54;100668.41;;;24.99;53.95
45285;BME280;31026;43.780;25.948;2022-07-23T13:03:27;100677.19;;;25.01;53.93
45285;BME280;31026;43.780;25.948;2022-07-23T13:05:59;100672.63;;;25.02;54.18
45285;BME280;31026;43.780;25.948;2022-07-23T13:08:28;100664.34;;;25.04;53.99
45285;BME280;31026;43.780;25.948;2022-07-23T13:10:57;100652.00;;;25.01;54.07
45285;BME280;31026;43.780;25.948;2022-07-23T13:13:26;100659.25;;;25.00;54.00
45285;BME280;31026;43.780;25.948;2022-07-23T13:15:55;100664.34;;;25.04;53.89